Time;durP1;ratioP1;P1;durP2;ratioP2;P2;SDS_P1;SDS_P2;PMS_P1;PMS_P2;Temp;Humidity;BMP_temperature;BMP_pressure;BME280_temperature;BME280_humidity;BME280_pressure;Samples;Min_cycle;Max_cycle;Signal;HPM_P1;HPM_P2
2023/05/23 00:00:51;;;;;;;5.03;4.00;;;21.20;76.70;;;;;;4994713;28;20046;-32
2023/05/23 00:03:21;;;;;;;4.53;3.75;;;20.80;63.90;;;;;;4994010;28;20137;-32
2023/05/23 00:05:50;;;;;;;4.70;3.60;;;20.10;60.20;;;;;;4995980;28;20495;-32
2023/05/23 00:08:16;;;;;;;5.13;3.83;;;22.10;77.40;;;;;;5013605;28;20046;-32
2023/05/23 00:10:43;;;;;;;5.28;3.85;;;;;;;;;;5013696;28;20072;-33
2023/05/23 00:13:13;;;;;;;6.25;4.30;;;21.10;60.30;;;;;;5013639;28;20057;-32
2023/05/23 00:15:40;;;;;;;7.00;4.50;;;21.30;76.60;;;;;;5013485;28;20042;-32
2023/05/23 00:18:09;;;;;;;5.85;4.63;;;21.40;76.70;;;;;;5013647;28;20060;-33
2023/05/23 00:20:36;;;;;;;5.78;4.50;;;21.10;60.20;;;;;;5012923;28;20499;-32
2023/05/23 00:23:04;;;;;;;5.57;4.40;;;21.20;76.90;;;;;;5013154;28;20530;-32
2023/05/23 00:25:33;;;;;;;5.70;4.40;;;;;;;;;;5012186;28;20125;-32
2023/05/23 00:27:59;;;;;;;6.97;5.00;;;22.10;77.00;;;;;;5013589;28;20081;-32
2023/05/23 00:30:26;;;;;;;6.65;4.60;;;;;;;;;;5013327;28;20072;-32
2023/05/23 00:32:53;;;;;;;7.75;5.38;;;21.40;77.40;;;;;;5013190;28;20133;-32
2023/05/23 00:35:20;;;;;;;6.47;4.60;;;20.90;76.40;;;;;;5012880;28;20050;-32
2023/05/23 00:37:49;;;;;;;5.38;4.45;;;19.90;59.60;;;;;;5011893;28;20045;-32
2023/05/23 00:40:17;;;;;;;6.85;4.55;;;20.70;76.10;;;;;;5013315;28;20132;-32
2023/05/23 00:42:44;;;;;;;6.50;4.45;;;20.80;76.30;;;;;;5012691;28;20583;-32
2023/05/23 00:45:11;;;;;;;6.18;4.70;;;21.10;60.30;;;;;;5012734;28;20148;-32
2023/05/23 00:47:38;;;;;;;6.45;4.50;;;21.40;77.40;;;;;;5012732;28;20042;-33
2023/05/23 00:50:06;;;;;;;8.00;5.00;;;21.60;77.70;;;;;;5012837;28;20060;-32
2023/05/23 00:52:33;;;;;;;7.10;5.10;;;20.70;76.30;;;;;;5012804;28;20050;-32
2023/05/23 00:55:00;;;;;;;5.85;4.95;;;;;;;;;;5012780;28;20056;-32
2023/05/23 00:57:28;;;;;;;7.68;5.22;;;21.00;60.20;;;;;;5012974;28;20542;-31
2023/05/23 00:59:55;;;;;;;6.43;4.38;;;;;;;;;;5012701;28;20053;-32
2023/05/23 01:02:23;;;;;;;6.40;4.53;;;;;;;;;;5012805;28;20133;-32
2023/05/23 01:04:53;;;;;;;6.90;4.80;;;20.80;75.20;;;;;;5012562;28;20078;-32
2023/05/23 01:07:20;;;;;;;6.28;4.90;;;;;;;;;;5011696;28;20046;-31
2023/05/23 01:09:47;;;;;;;6.68;4.78;;;;;;;;;;5012784;28;20430;-32
2023/05/23 01:12:17;;;;;;;5.85;4.50;;;21.00;60.10;;;;;;5012619;28;20128;-32
2023/05/23 01:14:49;;;;;;;8.05;5.13;;;21.00;60.10;;;;;;5012590;28;20080;-31
2023/05/23 01:17:18;;;;;;;7.50;4.97;;;21.00;60.10;;;;;;5012711;28;20076;-32
2023/05/23 01:19:59;;;;;;;6.40;4.60;;;20.90;76.90;;;;;;5012406;28;20053;-33
2023/05/23 01:22:38;;;;;;;6.22;4.60;;;20.10;61.10;;;;;;5011992;28;20052;-32
2023/05/23 01:25:10;;;;;;;9.27;4.97;;;21.10;75.00;;;;;;5012339;28;20050;-32
2023/05/23 01:27:49;;;;;;;6.40;4.65;;;21.00;60.10;;;;;;5012426;28;20535;-33
2023/05/23 01:30:16;;;;;;;7.18;4.65;;;20.80;77.30;;;;;;5012734;28;20049;-33
2023/05/23 01:32:44;;;;;;;8.38;4.63;;;20.50;76.30;;;;;;5012243;28;20049;-32
2023/05/23 01:35:11;;;;;;;6.18;5.13;;;;;;;;;;5012039;28;20096;-32
2023/05/23 01:37:37;;;;;;;6.07;4.47;;;20.70;63.60;;;;;;5011232;28;20046;-32
2023/05/23 01:40:05;;;;;;;5.95;4.35;;;21.10;76.60;;;;;;5012191;28;20132;-33
2023/05/23 01:42:32;;;;;;;7.53;4.60;;;21.20;76.90;;;;;;5011696;28;20566;-32
2023/05/23 01:45:00;;;;;;;6.35;4.45;;;21.00;60.10;;;;;;5012315;28;20129;-32
2023/05/23 01:47:26;;;;;;;5.32;4.40;;;21.10;77.30;;;;;;5012260;28;20586;-33
2023/05/23 01:49:54;;;;;;;6.22;4.38;;;;;;;;;;5012184;28;20132;-32
2023/05/23 01:52:20;;;;;;;7.55;4.53;;;20.60;60.90;;;;;;5011982;28;20073;-32
2023/05/23 01:54:48;;;;;;;6.75;4.40;;;20.80;64.80;;;;;;5011473;28;20076;-32
2023/05/23 01:57:14;;;;;;;5.80;4.28;;;20.90;76.50;;;;;;5011879;28;20498;-33
2023/05/23 01:59:41;;;;;;;6.35;4.65;;;21.00;76.80;;;;;;5012273;28;20049;-33
2023/05/23 02:02:09;;;;;;;6.68;4.50;;;20.90;60.00;;;;;;5012020;28;20056;-32
2023/05/23 02:04:36;;;;;;;6.40;4.65;;;21.50;70.50;;;;;;5012052;28;20128;-32
2023/05/23 02:07:02;;;;;;;6.78;4.35;;;21.00;69.30;;;;;;5011675;28;20056;-32
2023/05/23 02:09:29;;;;;;;5.95;4.40;;;21.10;77.30;;;;;;5011878;28;20049;-32
2023/05/23 02:11:56;;;;;;;6.28;4.32;;;20.70;63.00;;;;;;5011723;28;20132;-32
2023/05/23 02:14:25;;;;;;;5.53;4.60;;;20.90;68.40;;;;;;5011845;28;20072;-32
2023/05/23 02:16:52;;;;;;;8.73;4.93;;;;;;;;;;5011972;28;20137;-31
2023/05/23 02:19:20;;;;;;;6.28;4.38;;;21.90;77.30;;;;;;5012010;28;20046;-33
2023/05/23 02:21:47;;;;;;;6.28;4.07;;;20.80;76.20;;;;;;5011585;28;20565;-33
2023/05/23 02:24:14;;;;;;;5.88;4.47;;;;;;;;;;5011056;28;20046;-33
2023/05/23 02:26:41;;;;;;;5.32;4.00;;;;;;;;;;5011864;28;20136;-32
2023/05/23 02:29:08;;;;;;;9.43;4.43;;;;;;;;;;5011928;28;20145;-31
2023/05/23 02:31:36;;;;;;;7.43;4.65;;;;;;;;;;5011666;28;20050;-31
2023/05/23 02:34:03;;;;;;;6.13;4.43;;;19.80;75.70;;;;;;5011678;28;20140;-32
2023/05/23 02:36:32;;;;;;;5.47;4.25;;;20.70;76.90;;;;;;5010931;28;20056;-32
2023/05/23 02:38:59;;;;;;;6.13;4.20;;;;;;;;;;5011429;28;20057;-31
2023/05/23 02:41:25;;;;;;;4.60;3.97;;;21.10;76.40;;;;;;5011870;28;20056;-32
2023/05/23 02:43:52;;;;;;;5.43;4.20;;;20.90;76.60;;;;;;5011494;28;20136;-33
2023/05/23 02:46:19;;;;;;;5.53;4.20;;;21.50;65.00;;;;;;5011683;28;20047;-32
2023/05/23 02:48:45;;;;;;;6.25;3.75;;;20.50;64.70;;;;;;5013092;28;20052;-32
2023/05/23 02:51:13;;;;;;;5.70;3.90;;;21.30;71.20;;;;;;5015226;28;20061;-32
2023/05/23 02:53:41;;;;;;;5.00;4.22;;;20.10;76.30;;;;;;5014807;28;20422;-32
2023/05/23 02:56:08;;;;;;;5.55;3.90;;;21.80;65.90;;;;;;5015338;28;20060;-32
2023/05/23 02:58:35;;;;;;;5.53;3.90;;;;;;;;;;5014948;28;20481;-32
2023/05/23 03:01:02;;;;;;;4.70;3.80;;;;;;;;;;5015323;28;20132;-32
2023/05/23 03:03:30;;;;;;;4.80;3.88;;;21.30;62.50;;;;;;5014910;28;20053;-32
2023/05/23 03:05:57;;;;;;;5.43;4.18;;;21.20;76.50;;;;;;5014951;28;20046;-32
2023/05/23 03:08:23;;;;;;;5.68;3.92;;;20.90;63.30;;;;;;5014760;28;20129;-32
2023/05/23 03:10:52;;;;;;;6.57;4.10;;;20.80;76.90;;;;;;5015156;28;20133;-32
2023/05/23 03:13:18;;;;;;;7.38;4.07;;;20.90;76.20;;;;;;5014889;28;20049;-32
2023/05/23 03:15:46;;;;;;;5.03;3.85;;;;;;;;;;5014761;28;20143;-32
2023/05/23 03:18:12;;;;;;;6.45;4.20;;;21.30;76.80;;;;;;5014854;28;20415;-32
2023/05/23 03:20:39;;;;;;;5.05;3.90;;;;;;;;;;5014595;28;20128;-32
2023/05/23 03:23:06;;;;;;;4.88;3.75;;;19.70;69.90;;;;;;5014459;28;20137;-32
2023/05/23 03:25:33;;;;;;;5.45;3.70;;;20.40;76.10;;;;;;5014760;28;20139;-32
2023/05/23 03:28:01;;;;;;;5.07;3.80;;;20.80;59.70;;;;;;5014720;28;20133;-32
2023/05/23 03:30:28;;;;;;;5.15;3.88;;;;;;;;;;5014699;28;20053;-33
2023/05/23 03:32:55;;;;;;;5.93;4.15;;;20.90;77.10;;;;;;5014292;28;20133;-32
2023/05/23 03:35:21;;;;;;;4.93;3.83;;;20.70;76.20;;;;;;5013965;28;20048;-33
2023/05/23 03:37:48;;;;;;;4.60;3.70;;;;;;;;;;5014129;28;20129;-31
2023/05/23 03:40:15;;;;;;;4.93;3.63;;;20.50;76.80;;;;;;5014772;28;20132;-33
2023/05/23 03:42:42;;;;;;;6.45;4.60;;;19.80;74.10;;;;;;5014081;28;20129;-33
2023/05/23 03:45:11;;;;;;;5.25;3.65;;;21.90;64.40;;;;;;5014348;28;20422;-32
2023/05/23 03:47:37;;;;;;;5.07;4.00;;;21.10;77.10;;;;;;5014473;28;20046;-32
2023/05/23 03:50:05;;;;;;;5.22;3.55;;;21.70;76.90;;;;;;5014142;28;20129;-33
2023/05/23 03:52:31;;;;;;;5.88;3.67;;;21.00;76.40;;;;;;5014340;28;20049;-32
2023/05/23 03:54:58;;;;;;;4.85;3.50;;;20.30;76.30;;;;;;5014277;28;20141;-33
2023/05/23 03:57:25;;;;;;;5.32;3.85;;;21.50;64.30;;;;;;5013598;28;20506;-32
2023/05/23 03:59:52;;;;;;;5.68;3.70;;;20.40;70.20;;;;;;5005400;28;20050;-32
2023/05/23 04:02:20;;;;;;;6.07;3.92;;;20.70;59.50;;;;;;5004018;28;20054;-33
2023/05/23 04:04:47;;;;;;;5.20;3.80;;;;;;;;;;5004746;28;20062;-31
2023/05/23 04:07:14;;;;;;;4.45;3.55;;;20.30;76.00;;;;;;5005323;28;20125;-33
2023/05/23 04:09:41;;;;;;;5.50;3.65;;;;;;;;;;5003982;28;20517;-31
2023/05/23 04:12:09;;;;;;;4.82;3.47;;;20.30;75.90;;;;;;4994117;28;20058;-33
2023/05/23 04:14:38;;;;;;;4.95;3.63;;;20.90;76.30;;;;;;4994412;28;20129;-33
2023/05/23 04:17:07;;;;;;;4.80;3.50;;;20.70;76.30;;;;;;4994601;28;20129;-32
2023/05/23 04:19:35;;;;;;;6.45;3.67;;;20.50;76.00;;;;;;5012711;28;20050;-32
2023/05/23 04:22:02;;;;;;;4.75;3.47;;;20.80;76.20;;;;;;5007765;28;20125;-32
2023/05/23 04:24:29;;;;;;;5.88;3.78;;;20.40;76.00;;;;;;5005208;28;20125;-33
2023/05/23 04:26:56;;;;;;;5.13;3.40;;;;;;;;;;4976484;28;20482;-32
2023/05/23 04:29:25;;;;;;;4.75;3.45;;;21.60;72.30;;;;;;4994060;28;20754;-32
2023/05/23 04:31:51;;;;;;;5.53;3.42;;;20.80;77.10;;;;;;4993672;28;20568;-33
2023/05/23 04:34:21;;;;;;;4.93;3.53;;;;;;;;;;5005019;28;20057;-32
2023/05/23 04:36:49;;;;;;;4.80;3.10;;;20.70;76.60;;;;;;5013098;28;20056;-33
2023/05/23 04:39:16;;;;;;;4.63;3.40;;;20.90;76.20;;;;;;5013513;28;20060;-32
2023/05/23 04:41:44;;;;;;;4.30;3.25;;;20.50;63.50;;;;;;5013132;28;20558;-32
2023/05/23 04:44:10;;;;;;;5.45;3.45;;;20.60;63.80;;;;;;5013021;28;20530;-32
2023/05/23 04:46:40;;;;;;;6.03;3.60;;;19.90;76.70;;;;;;5013341;28;20129;-32
2023/05/23 04:49:07;;;;;;;4.65;3.55;;;21.10;61.90;;;;;;5012851;28;20507;-32
2023/05/23 04:51:34;;;;;;;4.68;3.17;;;20.70;76.00;;;;;;5013142;28;20049;-32
2023/05/23 04:54:02;;;;;;;5.88;3.40;;;20.40;63.70;;;;;;5012920;28;20513;-32
2023/05/23 04:56:29;;;;;;;4.85;3.28;;;20.00;65.30;;;;;;5013014;28;20125;-32
2023/05/23 04:58:55;;;;;;;4.22;3.13;;;20.50;76.90;;;;;;5006212;28;20530;-32
2023/05/23 05:01:23;;;;;;;5.85;3.20;;;20.50;69.30;;;;;;5003298;28;20058;-30
2023/05/23 05:03:50;;;;;;;4.25;3.17;;;;;;;;;;5007794;28;20050;-30
2023/05/23 05:06:17;;;;;;;4.38;3.05;;;20.70;76.10;;;;;;5004733;28;20555;-30
2023/05/23 05:08:44;;;;;;;5.47;3.40;;;21.10;76.30;;;;;;5001654;28;20133;-31
2023/05/23 05:11:12;;;;;;;4.65;3.38;;;19.70;75.60;;;;;;5003929;28;20054;-30
2023/05/23 05:13:39;;;;;;;6.90;3.28;;;20.30;76.30;;;;;;5001461;28;20154;-30
2023/05/23 05:16:06;;;;;;;5.65;3.30;;;20.20;64.40;;;;;;5012445;28;20089;-30
2023/05/23 05:18:33;;;;;;;4.63;3.10;;;20.80;76.50;;;;;;5012432;28;20057;-30
2023/05/23 05:21:00;;;;;;;6.45;3.22;;;20.60;76.20;;;;;;5012451;28;20050;-30
2023/05/23 05:23:28;;;;;;;4.55;3.10;;;19.70;76.50;;;;;;5012200;28;20521;-30
2023/05/23 05:25:56;;;;;;;4.07;3.08;;;20.60;76.90;;;;;;5012296;28;20050;-30
2023/05/23 05:28:24;;;;;;;5.70;3.25;;;20.60;76.90;;;;;;5012823;28;20049;-30
2023/05/23 05:30:52;;;;;;;4.20;3.00;;;20.10;75.80;;;;;;5012432;28;20132;-30
2023/05/23 05:33:19;;;;;;;5.90;3.15;;;21.30;76.40;;;;;;5012096;28;20057;-30
2023/05/23 05:35:46;;;;;;;4.50;3.17;;;20.20;62.40;;;;;;5012253;28;20224;-31
2023/05/23 05:38:13;;;;;;;4.20;3.08;;;20.10;76.20;;;;;;5011741;28;20050;-30
2023/05/23 05:40:39;;;;;;;5.13;2.85;;;20.50;67.50;;;;;;5012297;28;20125;-30
2023/05/23 05:43:06;;;;;;;5.07;3.10;;;20.30;63.60;;;;;;5011974;28;20521;-31
2023/05/23 05:45:34;;;;;;;3.95;2.75;;;20.30;76.00;;;;;;5012178;28;20050;-31
2023/05/23 05:48:01;;;;;;;4.63;2.90;;;20.50;76.60;;;;;;5011989;28;20144;-32
2023/05/23 05:50:28;;;;;;;4.43;2.53;;;20.50;76.70;;;;;;5011910;28;20132;-32
2023/05/23 05:52:55;;;;;;;5.72;3.15;;;;;;;;;;5012121;28;20136;-32
2023/05/23 05:55:22;;;;;;;6.53;2.95;;;20.40;77.00;;;;;;5012319;28;20056;-33
2023/05/23 05:57:49;;;;;;;4.70;2.85;;;;;;;;;;5012171;28;20049;-32
2023/05/23 06:00:17;;;;;;;4.25;2.63;;;20.90;76.80;;;;;;5012059;28;20058;-33
2023/05/23 06:02:46;;;;;;;4.68;2.55;;;21.20;77.40;;;;;;5011386;28;20073;-33
2023/05/23 06:05:15;;;;;;;5.35;2.70;;;20.80;76.90;;;;;;5011511;28;20054;-32
2023/05/23 06:07:42;;;;;;;4.72;3.00;;;20.60;76.10;;;;;;5012237;28;20129;-32
2023/05/23 06:10:11;;;;;;;4.85;2.85;;;20.10;76.40;;;;;;5011800;28;20517;-33
2023/05/23 06:12:38;;;;;;;5.20;2.70;;;20.00;75.90;;;;;;5011828;28;20057;-32
2023/05/23 06:15:06;;;;;;;3.65;2.33;;;20.30;59.20;;;;;;5011298;28;20042;-32
2023/05/23 06:17:33;;;;;;;4.63;2.60;;;21.20;76.50;;;;;;5011898;28;20052;-32
2023/05/23 06:20:01;;;;;;;4.40;2.90;;;20.40;59.20;;;;;;5012061;28;20050;-32
2023/05/23 06:22:27;;;;;;;4.38;2.60;;;20.40;65.90;;;;;;5012882;28;20057;-32
2023/05/23 06:24:54;;;;;;;4.57;2.65;;;19.50;75.40;;;;;;5015943;28;20475;-33
2023/05/23 06:27:21;;;;;;;5.32;2.65;;;20.90;76.60;;;;;;5015507;28;20522;-32
2023/05/23 06:29:47;;;;;;;4.68;2.75;;;20.40;61.60;;;;;;5015543;28;20092;-33
2023/05/23 06:32:14;;;;;;;4.55;2.90;;;20.50;75.90;;;;;;5015387;28;20559;-33
2023/05/23 06:34:41;;;;;;;5.25;2.92;;;19.90;76.50;;;;;;5015890;28;20506;-33
2023/05/23 06:37:09;;;;;;;3.83;2.63;;;20.70;61.30;;;;;;5015185;28;20050;-32
2023/05/23 06:39:36;;;;;;;3.88;2.33;;;19.20;72.70;;;;;;5015637;28;20124;-32
2023/05/23 06:42:03;;;;;;;4.07;2.55;;;20.00;75.90;;;;;;5015303;28;20042;-33
2023/05/23 06:44:30;;;;;;;5.50;2.90;;;;;;;;;;5014931;28;20052;-32
2023/05/23 06:46:57;;;;;;;6.43;2.92;;;20.80;76.20;;;;;;5015404;28;20132;-33
2023/05/23 06:49:24;;;;;;;4.93;2.60;;;;;;;;;;5015458;28;20054;-31
2023/05/23 06:51:51;;;;;;;4.45;2.65;;;20.50;76.40;;;;;;5015302;28;20053;-33
2023/05/23 06:54:19;;;;;;;5.13;2.65;;;20.30;59.00;;;;;;5015193;28;20145;-31
2023/05/23 06:56:46;;;;;;;4.47;2.67;;;;;;;;;;5015173;28;20052;-32
2023/05/23 06:59:13;;;;;;;4.10;2.58;;;;;;;;;;5015056;28;20052;-32
2023/05/23 07:01:41;;;;;;;4.93;2.88;;;;;;;;;;5014728;28;20137;-31
2023/05/23 07:04:08;;;;;;;4.75;2.58;;;21.10;76.30;;;;;;5014964;28;20129;-32
2023/05/23 07:06:35;;;;;;;4.05;2.60;;;20.20;58.90;;;;;;5015219;28;20475;-31
2023/05/23 07:09:03;;;;;;;5.13;3.00;;;;;;;;;;5015120;28;20049;-33
2023/05/23 07:11:31;;;;;;;5.95;2.53;;;20.60;76.80;;;;;;5014858;28;20511;-32
2023/05/23 07:13:58;;;;;;;4.75;2.70;;;20.30;76.70;;;;;;5014205;28;20073;-32
2023/05/23 07:16:25;;;;;;;4.05;2.70;;;;;;;;;;5015164;28;20133;-31
2023/05/23 07:18:52;;;;;;;4.28;2.50;;;;;;;;;;5014921;28;20042;-32
2023/05/23 07:21:19;;;;;;;6.15;2.58;;;;;;;;;;5014496;28;20137;-32
2023/05/23 07:23:46;;;;;;;4.05;2.33;;;;;;;;;;5014007;28;20072;-32
2023/05/23 07:26:13;;;;;;;5.57;2.92;;;;;;;;;;5013993;28;20050;-32
2023/05/23 07:28:42;;;;;;;4.20;2.50;;;20.50;58.80;;;;;;5014146;28;20046;-32
2023/05/23 07:31:09;;;;;;;3.03;2.05;;;20.80;76.10;;;;;;4995325;28;20050;-32
2023/05/23 07:33:36;;;;;;;4.78;2.47;;;;;;;;;;4994721;28;20050;-32
2023/05/23 07:36:02;;;;;;;5.68;2.30;;;20.50;76.30;;;;;;4996004;28;20149;-32
2023/05/23 07:38:29;;;;;;;5.20;2.75;;;20.30;76.10;;;;;;5014624;28;20054;-33
2023/05/23 07:40:56;;;;;;;3.58;2.30;;;20.50;64.50;;;;;;5014784;28;20050;-32
2023/05/23 07:43:23;;;;;;;5.43;2.50;;;19.80;75.30;;;;;;5014098;28;20129;-33
2023/05/23 07:45:51;;;;;;;5.53;2.22;;;21.10;76.40;;;;;;5014322;28;20081;-33
2023/05/23 07:48:17;;;;;;;5.43;2.30;;;20.30;76.50;;;;;;5014414;28;20042;-30
2023/05/23 07:50:44;;;;;;;5.13;2.65;;;20.00;64.00;;;;;;5013700;28;20121;-31
2023/05/23 07:53:11;;;;;;;5.35;2.40;;;20.80;76.10;;;;;;5009679;28;20138;-32
2023/05/23 07:55:37;;;;;;;5.43;2.50;;;20.20;75.50;;;;;;5010406;28;20136;-32
2023/05/23 07:58:04;;;;;;;4.65;2.40;;;;;;;;;;5013845;28;20042;-31
2023/05/23 08:00:31;;;;;;;5.05;2.10;;;20.60;76.10;;;;;;5014309;28;20049;-32
2023/05/23 08:02:59;;;;;;;4.00;2.22;;;20.00;75.30;;;;;;5014080;28;20152;-33
2023/05/23 08:05:26;;;;;;;4.78;2.50;;;19.50;75.00;;;;;;5014141;28;20206;-32
2023/05/23 08:07:53;;;;;;;3.97;2.40;;;19.90;63.30;;;;;;5013757;28;20046;-33
2023/05/23 08:10:21;;;;;;;5.07;2.30;;;;;;;;;;5013979;28;20100;-33
2023/05/23 08:12:47;;;;;;;5.00;2.55;;;20.30;76.40;;;;;;5013324;28;20124;-33
2023/05/23 08:15:14;;;;;;;6.38;2.63;;;20.90;76.10;;;;;;5008803;28;20057;-32
2023/05/23 08:17:41;;;;;;;4.95;2.40;;;;;;;;;;5013977;28;20049;-32
2023/05/23 08:20:11;;;;;;;4.75;2.72;;;21.20;75.90;;;;;;5013228;28;20054;-32
2023/05/23 08:22:37;;;;;;;8.68;2.50;;;20.60;75.90;;;;;;5013580;28;20050;-32
2023/05/23 08:25:05;;;;;;;5.32;2.33;;;20.40;75.40;;;;;;5007316;28;20053;-33
2023/05/23 08:27:32;;;;;;;5.95;2.80;;;20.10;76.20;;;;;;5006692;28;20125;-32
2023/05/23 08:29:59;;;;;;;4.65;2.50;;;;;;;;;;5003232;28;20050;-31
2023/05/23 08:32:26;;;;;;;5.88;2.63;;;20.10;75.70;;;;;;5006119;28;20057;-32
2023/05/23 08:34:53;;;;;;;4.20;2.47;;;20.30;75.90;;;;;;5002417;28;20050;-33
2023/05/23 08:37:21;;;;;;;4.65;2.30;;;20.30;61.10;;;;;;5004729;28;20057;-32
2023/05/23 08:39:47;;;;;;;4.18;2.30;;;20.20;58.70;;;;;;5008241;28;20418;-32
2023/05/23 08:42:14;;;;;;;4.13;2.20;;;20.20;75.40;;;;;;5012755;28;20042;-32
2023/05/23 08:44:42;;;;;;;6.72;2.42;;;20.20;75.10;;;;;;5012639;28;20533;-33
2023/05/23 08:47:09;;;;;;;5.75;2.40;;;20.90;75.80;;;;;;5012022;28;20099;-33
2023/05/23 08:49:37;;;;;;;7.90;2.50;;;20.40;75.20;;;;;;5011950;28;20046;-33
2023/05/23 08:52:04;;;;;;;5.25;2.33;;;20.30;57.90;;;;;;5012376;28;20137;-31
2023/05/23 08:54:32;;;;;;;5.13;2.38;;;21.00;75.10;;;;;;5008679;28;20049;-30
2023/05/23 08:56:59;;;;;;;3.83;2.15;;;19.20;74.40;;;;;;5012993;28;20081;-30
2023/05/23 08:59:27;;;;;;;4.90;2.28;;;;;;;;;;5013044;28;20129;-32
2023/05/23 09:01:55;;;;;;;6.10;2.60;;;20.00;74.40;;;;;;5013156;28;20046;-32
2023/05/23 09:04:22;;;;;;;4.78;2.10;;;20.30;74.70;;;;;;5012513;28;20077;-32
2023/05/23 09:06:49;;;;;;;4.72;2.33;;;20.30;57.60;;;;;;5012618;28;20050;-31
2023/05/23 09:09:16;;;;;;;5.38;2.38;;;20.60;74.70;;;;;;5013125;28;20046;-33
2023/05/23 09:11:44;;;;;;;6.20;2.42;;;21.00;63.60;;;;;;5012539;28;20120;-33
2023/05/23 09:14:13;;;;;;;4.38;2.30;;;20.60;66.50;;;;;;5012610;28;20057;-32
2023/05/23 09:16:40;;;;;;;5.45;2.50;;;;;;;;;;5012910;28;20141;-32
2023/05/23 09:19:10;;;;;;;6.13;2.55;;;19.20;68.10;;;;;;5013051;28;20052;-32
2023/05/23 09:21:37;;;;;;;6.97;2.83;;;20.60;70.80;;;;;;5012998;28;20430;-32
2023/05/23 09:24:05;;;;;;;6.38;2.40;;;20.70;74.80;;;;;;5012246;28;20108;-32
2023/05/23 09:26:31;;;;;;;5.80;2.42;;;20.40;74.60;;;;;;5011250;28;20125;-32
2023/05/23 09:29:00;;;;;;;5.22;2.30;;;20.90;74.90;;;;;;5011656;28;20552;-32
2023/05/23 09:31:28;;;;;;;7.78;2.97;;;21.40;74.90;;;;;;5012102;28;20462;-33
2023/05/23 09:33:54;;;;;;;9.10;3.10;;;21.40;75.00;;;;;;5012026;28;20054;-32
2023/05/23 09:36:21;;;;;;;8.48;2.63;;;;;;;;;;5006317;28;20486;-32
2023/05/23 09:38:48;;;;;;;5.75;2.20;;;20.20;75.10;;;;;;5011954;28;20387;-33
2023/05/23 09:41:15;;;;;;;5.35;2.40;;;;;;;;;;5012071;28;20116;-32
2023/05/23 09:43:49;;;;;;;5.18;2.47;;;20.40;57.30;;;;;;5011423;28;20045;-32
2023/05/23 09:46:19;;;;;;;5.88;2.72;;;21.30;74.90;;;;;;5009450;28;20073;-32
2023/05/23 09:48:46;;;;;;;6.03;2.50;;;21.10;75.50;;;;;;5011608;28;20129;-32
2023/05/23 09:51:13;;;;;;;5.93;2.63;;;20.40;74.20;;;;;;5011889;28;20495;-33
2023/05/23 09:53:40;;;;;;;5.88;2.47;;;20.10;73.40;;;;;;5008941;28;20060;-32
2023/05/23 09:56:10;;;;;;;7.55;2.70;;;21.00;75.40;;;;;;5011085;28;20049;-32
2023/05/23 09:58:37;;;;;;;5.25;2.33;;;19.80;73.90;;;;;;5011302;28;20045;-32
2023/05/23 10:01:03;;;;;;;3.92;2.00;;;20.60;74.50;;;;;;5010774;28;20136;-32
2023/05/23 10:03:34;;;;;;;4.20;2.17;;;20.40;64.00;;;;;;5011360;28;20112;-32
2023/05/23 10:06:04;;;;;;;6.00;2.28;;;21.00;74.50;;;;;;5008868;28;20041;-32
2023/05/23 10:08:36;;;;;;;8.02;2.60;;;20.80;75.20;;;;;;5009175;28;20065;-33
2023/05/23 10:12:01;;;;;;;6.15;2.10;;;20.40;67.30;;;;;;5008918;28;20137;-32
2023/05/23 10:14:29;;;;;;;6.30;2.38;;;20.40;57.10;;;;;;5004927;28;20133;-31
2023/05/23 10:16:59;;;;;;;6.40;2.28;;;20.50;62.60;;;;;;5011752;28;20057;-32
2023/05/23 10:19:37;;;;;;;6.00;2.50;;;20.60;74.90;;;;;;5008391;28;20038;-32
2023/05/23 10:22:04;;;;;;;5.45;2.38;;;21.30;61.80;;;;;;5008483;28;20064;-32
2023/05/23 10:24:31;;;;;;;5.35;2.58;;;20.70;72.40;;;;;;5010265;28;20105;-33
2023/05/23 10:26:58;;;;;;;3.72;2.17;;;19.80;74.80;;;;;;4982848;28;20479;-32
2023/05/23 10:29:25;;;;;;;6.07;2.30;;;;;;;;;;4992279;28;20133;-32
2023/05/23 10:31:52;;;;;;;5.45;2.38;;;21.00;74.70;;;;;;5010044;28;20132;-32
2023/05/23 10:34:24;;;;;;;4.15;2.30;;;20.20;72.20;;;;;;5011077;28;20558;-32
2023/05/23 10:36:58;;;;;;;13.38;2.50;;;20.40;57.00;;;;;;5011349;28;20054;-33
2023/05/23 10:39:32;;;;;;;6.07;2.30;;;20.50;57.10;;;;;;5010361;28;20053;-32
2023/05/23 10:42:00;;;;;;;5.18;2.50;;;19.40;73.70;;;;;;5010107;28;20128;-32
2023/05/23 10:44:28;;;;;;;6.10;2.30;;;20.50;57.20;;;;;;4991971;28;20046;-32
2023/05/23 10:46:56;;;;;;;5.30;2.45;;;19.40;73.50;;;;;;4992446;28;20133;-32
2023/05/23 10:49:38;;;;;;;4.32;2.25;;;20.40;57.00;;;;;;4992076;28;20496;-31
2023/05/23 10:52:07;;;;;;;5.30;2.63;;;20.40;57.00;;;;;;4992167;28;20046;-31
2023/05/23 10:54:37;;;;;;;6.50;2.50;;;20.40;56.90;;;;;;4996402;28;20045;-32
2023/05/23 10:57:04;;;;;;;5.80;2.35;;;;;;;;;;5011842;28;20136;-32
2023/05/23 10:59:31;;;;;;;5.30;2.67;;;21.40;74.60;;;;;;5011490;28;20045;-32
2023/05/23 11:01:58;;;;;;;5.93;2.33;;;20.30;56.70;;;;;;5011534;28;20045;-32
2023/05/23 11:04:25;;;;;;;5.80;2.38;;;20.60;73.80;;;;;;5011096;28;20045;-33
2023/05/23 11:06:53;;;;;;;6.13;2.40;;;20.00;68.50;;;;;;5010961;28;20060;-32
2023/05/23 11:09:21;;;;;;;6.15;2.40;;;20.90;62.60;;;;;;5011662;28;20042;-32
2023/05/23 11:11:56;;;;;;;5.18;2.30;;;20.90;60.80;;;;;;5014355;28;20056;-33
2023/05/23 11:14:33;;;;;;;;;;;20.40;56.70;;;;;;5014966;28;20050;-32
2023/05/23 11:17:00;;;;;;;5.20;2.10;;;20.80;63.20;;;;;;5014536;28;19921;-33
2023/05/23 11:19:27;;;;;;;5.55;2.42;;;;;;;;;;5009043;28;20411;-32
2023/05/23 11:21:56;;;;;;;3.15;2.10;;;20.40;56.50;;;;;;5008163;28;20050;-31
2023/05/23 11:24:25;;;;;;;4.93;2.20;;;20.40;56.50;;;;;;5007586;28;20084;-32
2023/05/23 11:26:59;;;;;;;4.72;2.08;;;20.40;74.10;;;;;;5013389;28;20513;-32
2023/05/23 11:29:27;;;;;;;8.43;2.60;;;19.90;69.30;;;;;;5014648;28;20049;-32
2023/05/23 11:31:54;;;;;;;6.40;2.42;;;20.60;74.30;;;;;;5013873;28;20050;-32
2023/05/23 11:34:21;;;;;;;6.10;2.30;;;21.10;65.80;;;;;;5013765;28;20581;-32
2023/05/23 11:36:49;;;;;;;4.80;2.17;;;20.30;74.50;;;;;;5009251;28;20049;-32
2023/05/23 11:39:18;;;;;;;5.10;2.25;;;;;;;;;;5014282;28;20056;-32
2023/05/23 11:41:50;;;;;;;3.78;1.88;;;20.10;73.70;;;;;;5014215;28;20054;-30
2023/05/23 11:44:17;;;;;;;4.75;2.25;;;20.20;63.90;;;;;;5013196;28;20053;-31
2023/05/23 11:46:58;;;;;;;6.20;2.30;;;20.60;74.30;;;;;;5014060;28;20470;-30
2023/05/23 11:49:25;;;;;;;4.63;2.05;;;20.80;74.10;;;;;;5014191;28;20038;-30
2023/05/23 11:51:51;;;;;;;4.05;2.08;;;21.40;69.20;;;;;;5013961;28;20060;-31
2023/05/23 11:54:19;;;;;;;5.95;2.20;;;;;;;;;;5013792;28;20050;-30
2023/05/23 11:56:47;;;;;;;4.90;2.40;;;20.50;56.80;;;;;;5013739;28;20092;-31
2023/05/23 11:59:14;;;;;;;4.35;2.38;;;;;;;;;;5013727;28;20054;-32
2023/05/23 12:01:40;;;;;;;6.75;2.42;;;20.60;71.70;;;;;;5013056;28;20056;-30
2023/05/23 12:04:10;;;;;;;6.50;2.35;;;20.50;73.70;;;;;;5007855;28;20541;-30
2023/05/23 12:06:38;;;;;;;4.93;2.20;;;20.10;74.40;;;;;;5013739;28;20053;-30
2023/05/23 12:09:05;;;;;;;3.90;1.95;;;20.20;74.30;;;;;;5013835;28;20056;-31
2023/05/23 12:11:32;;;;;;;8.15;2.63;;;;;;;;;;5009832;28;20108;-31
2023/05/23 12:14:05;;;;;;;6.00;2.05;;;20.10;73.10;;;;;;5013147;28;20403;-30
2023/05/23 12:16:31;;;;;;;6.32;2.25;;;20.30;74.40;;;;;;5013861;28;20050;-30
2023/05/23 12:18:58;;;;;;;5.68;2.10;;;20.60;59.70;;;;;;5011739;28;20131;-30
2023/05/23 12:21:25;;;;;;;6.18;2.00;;;20.80;73.70;;;;;;5013313;28;20041;-30
2023/05/23 12:23:52;;;;;;;5.50;2.38;;;;;;;;;;5012599;28;20100;-31
2023/05/23 12:26:21;;;;;;;4.85;2.30;;;20.00;73.80;;;;;;5013565;28;20050;-30
2023/05/23 12:28:48;;;;;;;6.07;2.40;;;;;;;;;;5013304;28;20046;-32
2023/05/23 12:31:17;;;;;;;7.05;3.00;;;20.50;56.50;;;;;;5013420;28;20133;-31
2023/05/23 12:33:46;;;;;;;7.80;2.78;;;21.00;74.70;;;;;;5012762;28;20510;-30
2023/05/23 12:36:13;;;;;;;8.68;2.60;;;20.80;67.50;;;;;;5012614;28;20046;-30
2023/05/23 12:38:43;;;;;;;6.70;2.58;;;19.40;72.90;;;;;;5012441;28;20056;-30
2023/05/23 12:41:11;;;;;;;4.72;2.30;;;20.60;74.00;;;;;;5012953;28;20407;-30
2023/05/23 12:43:39;;;;;;;4.40;2.20;;;20.60;74.40;;;;;;5012031;28;20046;-30
2023/05/23 12:46:06;;;;;;;5.20;2.28;;;20.40;73.40;;;;;;5012040;28;20045;-30
2023/05/23 12:48:34;;;;;;;5.20;2.40;;;20.60;56.40;;;;;;5012573;28;20412;-31
2023/05/23 12:51:01;;;;;;;7.03;2.20;;;;;;;;;;5012314;28;20057;-32
2023/05/23 12:53:29;;;;;;;6.38;2.50;;;20.70;73.90;;;;;;5012328;28;20073;-30
2023/05/23 12:55:55;;;;;;;4.18;2.50;;;20.30;69.30;;;;;;5009707;28;20113;-30
2023/05/23 12:58:22;;;;;;;10.18;2.50;;;20.20;74.00;;;;;;5012664;28;20060;-30
2023/05/23 13:00:49;;;;;;;7.97;2.50;;;20.40;73.30;;;;;;5012455;28;20096;-30
2023/05/23 13:03:16;;;;;;;7.47;2.83;;;20.70;67.70;;;;;;5009636;28;20065;-30
2023/05/23 13:05:44;;;;;;;10.63;2.50;;;20.40;69.50;;;;;;5011717;28;20491;-30
2023/05/23 13:08:11;;;;;;;6.70;2.53;;;19.90;73.40;;;;;;5012385;28;20130;-30